Mato Verde, Brazil
Current Conditions -  °F | °C
As of 1:00 AM on Wednesday 26 Nov 2014 (Local Time) from SBMK Reporting Station
Clear Clear  
Wind Chill: 70°   Ceiling: Unl
Heat Index: 70°   Visibility: 6mi
Dew Point: 68°   Wind: 1mph
Humidity: 94%   Direction: 310°NW
Pressure: 29.94"   Gusts: NA
Location:  15.4°S, 42.87°W
Report Text: SBMK 260300Z 31001KT 9000 NSC 21/20 Q1014
Loading
Personal Weather Stations






























Interactive Weather Map New forecast layout! Learn more

10-Day Weather Forecast

Advertisements
Track Severe Weather on mobile